• Join FlightAware (Why Join?)
  • Login
  • US Flag 
07:18PM EST


 

Airport Tracker/Info


-or-


 

Live Flight TrackerFlight Track Log ✈ UAL582 ✈ 06-May-2013 ✈ KORD - KATL

Flight Track Log - Related Links

Times and Time Zones

All times are in EDT time to prevent confusion due to time zone crossing. See the UAL582 flight status page for this flight to view local times or setup timezone preferences in your user account.

Time Position Orientation Groundspeed Altitude Reporting Facility
EDT Latitude Longitude Course Direction KTS MPH feet Rate Location/Type
08:24PM 41.9667 -87.8500 180° South 172 198 2,800  Level Chicago TRACON
08:26PM 41.6758 -87.7632 180° South  Level Estimated
08:26PM 41.8897 -87.7456 135° Southeast 261 300 7,700  Level Chicago Center
08:27PM 41.5738 -87.7156 176° South  Level Estimated
08:27PM 41.8164 -87.8214 218° Southwest 288 331 11,900  Level Chicago Center
08:28PM 41.4862 -87.8000 216° Southwest  Level FlightAware Approximate
08:28PM 41.7286 -87.8314 185° South 318 366 13,700  Level Chicago Center
08:29PM 41.3846 -87.7511 180° South  Level Estimated
08:29PM 41.6239 -87.8483 187° South 372 428 15,800  Level Chicago Center
08:30PM 41.5139 -87.8636 186° South 392 451 18,300 2,220 Climbing Chicago Center
08:31PM 41.3983 -87.8794 186° South 404 465 20,400 2,040 Climbing Chicago Center
08:32PM 41.2786 -87.8900 184° South 422 486 22,600 1,920 Climbing Chicago Center
08:33PM 41.1569 -87.8914 180° South 431 496 24,400 1,800 Climbing Chicago Center
08:34PM 41.0069 -87.8853 178° South 447 514 26,400 1,680 Climbing Chicago Center
08:35PM 40.8811 -87.8800 178° South 453 521 27,900 1,440 Climbing Chicago Center
08:37PM 40.6631 -87.8750 179° South 466 536 30,400 1,440 Climbing Indianapolis Center
08:37PM 40.6219 -87.8725 177° South 466 536 30,900 1,560 Climbing Chicago Center
08:39PM 40.4069 -87.8669 179° South 461 531 33,600 1,620 Climbing Indianapolis Center
08:39PM 40.3406 -87.8636 178° South 461 531 34,300 1,920 Climbing Chicago Center
08:40PM 40.2161 -87.8606 179° South 455 524 36,400 1,440 Climbing Chicago Center
08:41PM 40.1333 -87.8567 178° South 446 513 36,700 360 Climbing Indianapolis Center
08:42PM 40.0086 -87.8506 178° South 447 514 37,000 120 Climbing Indianapolis Center
08:43PM 39.8836 -87.8461 178° South 451 519 37,000  Level Indianapolis Center
08:44PM 39.7603 -87.8406 178° South 449 517 37,000  Level Indianapolis Center
08:45PM 39.6361 -87.8342 178° South 448 516 37,000 -60 Level Indianapolis Center
08:46PM 39.5133 -87.8283 178° South 446 513 36,900 -60 Descending Indianapolis Center
08:47PM 39.3675 -87.8231 178° South 446 513 36,900  Level Indianapolis Center
08:49PM 39.1158 -87.8131 178° South 451 519 37,000  Climbing Indianapolis Center
08:50PM 38.9911 -87.7908 172° South 451 519 37,000  Level Indianapolis Center
08:52PM 38.8214 -87.7094 160° South 444 511 37,000  Level Chicago Center
08:52PM 38.7564 -87.6931 169° South 441 507 37,000 -120 Level Indianapolis Center
08:53PM 38.6386 -87.6447 162° South 443 510 36,900  Descending Indianapolis Center
08:55PM 38.5000 -87.5880 162° South  Level FlightAware Approximate
08:55PM 38.3781 -87.5422 162° South 447 514 37,000  Level Indianapolis Center
08:56PM 38.2575 -87.4956 163° South 453 521 37,000  Level Indianapolis Center
08:57PM 38.1361 -87.4475 163° South 458 527 37,000  Level Indianapolis Center
08:58PM 38.0144 -87.3997 163° South 462 532 37,000  Level Indianapolis Center
08:59PM 37.8917 -87.3519 163° South 463 533 37,000 -60 Level Indianapolis Center
09:01PM 37.6322 -87.2508 163° South 469 540 36,900  Descending Indianapolis Center
09:02PM 37.5044 -87.2025 163° South 473 544 37,000 60 Climbing Indianapolis Center
09:03PM 37.4622 -87.1878 165° South 470 541 37,000  Level Memphis Center
09:04PM 37.3381 -87.1378 162° South 470 541 37,000  Level Memphis Center
09:05PM 37.2117 -87.0883 163° South 475 547 37,000 -60 Level Memphis Center
09:06PM 37.1003 -87.0461 163° South 475 547 36,900  Descending Memphis Center
09:07PM 36.9761 -86.9992 163° South 475 547 37,000  Climbing Memphis Center
09:08PM 36.8497 -86.9528 164° South 475 547 37,000 -60 Level Memphis Center
09:09PM 36.7275 -86.9061 163° South 470 541 36,900 -240 Descending Memphis Center
09:10PM 36.6033 -86.8597 163° South 465 535 36,600 -600 Descending Memphis Center
09:11PM 36.4706 -86.8061 162° South 465 535 35,800 -840 Descending Memphis Center
09:12PM 36.3358 -86.7606 165° South 480 552 35,000 -600 Descending Memphis Center
09:14PM 36.1044 -86.6564 160° South 484 557 34,100 -660 Descending Indianapolis Center
09:15PM 35.9858 -86.5631 148° Southeast 475 547 33,100 -360 Descending Memphis Center
09:17PM 35.8899 -86.4813 149° Southeast  Level FlightAware Approximate
09:17PM 35.6683 -86.3061 149° Southeast 496 571 32,900  Level Atlanta Center
09:18PM 35.5447 -86.2083 147° Southeast 491 565 33,000  Climbing Atlanta Center
09:19PM 35.4336 -86.1211 147° Southeast 486 559 32,900 -480 Descending Atlanta Center
09:20PM 35.3225 -86.0319 147° Southeast 481 554 32,100 -900 Descending Atlanta Center
09:21PM 35.2133 -85.9428 146° Southeast 475 547 31,100 -1,020 Descending Atlanta Center
09:22PM 35.1039 -85.8564 147° Southeast 475 547 30,100 -1,020 Descending Atlanta Center
09:23PM 34.9925 -85.7678 147° Southeast 475 547 29,100 -1,020 Descending Atlanta Center
09:25PM 34.8982 -85.6837 147° Southeast  Level FlightAware Approximate
09:25PM 34.7736 -85.5939 147° Southeast 475 547 27,100  Level Atlanta Center
09:26PM 34.6619 -85.5086 148° Southeast 475 547 26,200 -1,020 Descending Atlanta Center
09:27PM 34.5544 -85.4258 148° Southeast 475 547 25,100 -1,260 Descending Atlanta Center
09:28PM 34.4553 -85.3461 146° Southeast 459 528 23,700 -2,220 Descending Atlanta Center
09:29PM 34.3661 -85.2794 148° Southeast 415 478 20,700 -3,240 Descending Atlanta Center
09:30PM 34.2731 -85.2053 147° Southeast 392 451 17,300 -2,460 Descending Atlanta Center
09:32PM 34.1167 -85.0667 144° Southeast 390 449 14,000 -1,680 Descending Atlanta TRACON
09:32PM 34.1053 -85.0447 122° Southeast 387 445 14,000 -480 Level Atlanta Center
09:33PM 34.0289 -84.9511 135° Southeast 387 445 13,400 -1,020 Descending Atlanta Center
09:34PM 33.9606 -84.8578 131° Southeast 381 438 12,000 -720 Descending Atlanta Center
09:35PM 33.8922 -84.7744 135° Southeast 354 407 12,000  Level Atlanta Center
09:36PM 33.8333 -84.7000 134° Southeast 330 380 12,000  Level Atlanta TRACON
09:37PM 33.7833 -84.6333 132° Southeast 327 376 12,000 -60 Level Atlanta TRACON
09:38PM 33.7333 -84.5500 126° Southeast 288 331 11,900 -480 Descending Atlanta TRACON
09:39PM 33.7333 -84.4500 90° East 271 312 11,000 -1,200 Descending Atlanta TRACON
09:40PM 33.7333 -84.3667 90° East 258 297 9,400 -1,740 Descending Atlanta TRACON
09:42PM 33.7333 -84.2000 90° East 246 283 6,100 -1,620 Descending Atlanta TRACON
09:43PM 33.6833 -84.1667 151° Southeast 221 254 4,800 -1,020 Descending Atlanta TRACON
09:44PM 33.6500 -84.2167 231° Southwest 188 216 4,100 -840 Descending Atlanta TRACON
09:45PM 33.6500 -84.2667 270° West 178 205 3,200 -900 Descending Atlanta TRACON